sensor_id;sensor_type;location;lat;lon;timestamp;P1;durP1;ratioP1;P2;durP2;ratioP2
27071;SDS011;14613;46.308;25.288;2023-07-13T00:00:25;0.80;;;0.50;;
27071;SDS011;14613;46.308;25.288;2023-07-13T00:02:51;0.05;;;0.05;;
27071;SDS011;14613;46.308;25.288;2023-07-13T00:05:20;0.00;;;0.00;;
27071;SDS011;14613;46.308;25.288;2023-07-13T00:07:47;0.00;;;0.00;;
27071;SDS011;14613;46.308;25.288;2023-07-13T00:10:13;0.10;;;0.10;;
27071;SDS011;14613;46.308;25.288;2023-07-13T00:12:39;1.40;;;0.60;;
27071;SDS011;14613;46.308;25.288;2023-07-13T00:15:06;0.20;;;0.20;;
27071;SDS011;14613;46.308;25.288;2023-07-13T00:17:48;0.00;;;0.00;;
27071;SDS011;14613;46.308;25.288;2023-07-13T00:20:14;0.10;;;0.10;;
27071;SDS011;14613;46.308;25.288;2023-07-13T00:22:40;0.00;;;0.00;;
27071;SDS011;14613;46.308;25.288;2023-07-13T00:25:06;0.03;;;0.03;;
27071;SDS011;14613;46.308;25.288;2023-07-13T00:27:35;0.00;;;0.00;;
27071;SDS011;14613;46.308;25.288;2023-07-13T00:30:00;0.10;;;0.10;;
27071;SDS011;14613;46.308;25.288;2023-07-13T00:32:28;0.03;;;0.03;;
27071;SDS011;14613;46.308;25.288;2023-07-13T00:34:54;1.73;;;0.73;;
27071;SDS011;14613;46.308;25.288;2023-07-13T00:37:21;0.00;;;0.00;;
27071;SDS011;14613;46.308;25.288;2023-07-13T00:39:47;0.05;;;0.05;;
27071;SDS011;14613;46.308;25.288;2023-07-13T00:42:13;0.10;;;0.10;;
27071;SDS011;14613;46.308;25.288;2023-07-13T00:44:39;0.30;;;0.30;;
27071;SDS011;14613;46.308;25.288;2023-07-13T00:47:05;0.20;;;0.20;;
27071;SDS011;14613;46.308;25.288;2023-07-13T00:49:31;0.17;;;0.17;;
27071;SDS011;14613;46.308;25.288;2023-07-13T00:52:00;0.10;;;0.10;;
27071;SDS011;14613;46.308;25.288;2023-07-13T00:54:30;0.00;;;0.00;;
27071;SDS011;14613;46.308;25.288;2023-07-13T00:57:04;0.00;;;0.00;;
27071;SDS011;14613;46.308;25.288;2023-07-13T00:59:32;0.10;;;0.10;;
27071;SDS011;14613;46.308;25.288;2023-07-13T01:02:00;1.13;;;0.77;;
27071;SDS011;14613;46.308;25.288;2023-07-13T01:04:26;0.08;;;0.08;;
27071;SDS011;14613;46.308;25.288;2023-07-13T01:06:52;0.00;;;0.00;;
27071;SDS011;14613;46.308;25.288;2023-07-13T01:09:18;0.20;;;0.20;;
27071;SDS011;14613;46.308;25.288;2023-07-13T01:11:45;0.22;;;0.08;;
27071;SDS011;14613;46.308;25.288;2023-07-13T01:14:12;0.00;;;0.00;;
27071;SDS011;14613;46.308;25.288;2023-07-13T01:16:39;0.10;;;0.10;;
27071;SDS011;14613;46.308;25.288;2023-07-13T01:19:18;0.00;;;0.00;;
27071;SDS011;14613;46.308;25.288;2023-07-13T01:21:55;0.00;;;0.00;;
27071;SDS011;14613;46.308;25.288;2023-07-13T01:24:20;0.20;;;0.20;;
27071;SDS011;14613;46.308;25.288;2023-07-13T01:26:46;0.60;;;0.60;;
27071;SDS011;14613;46.308;25.288;2023-07-13T01:29:12;0.00;;;0.00;;
27071;SDS011;14613;46.308;25.288;2023-07-13T01:31:38;0.70;;;0.70;;
27071;SDS011;14613;46.308;25.288;2023-07-13T01:34:03;0.20;;;0.20;;
27071;SDS011;14613;46.308;25.288;2023-07-13T01:36:30;0.22;;;0.22;;
27071;SDS011;14613;46.308;25.288;2023-07-13T01:38:56;0.00;;;0.00;;
27071;SDS011;14613;46.308;25.288;2023-07-13T01:41:21;0.00;;;0.00;;
27071;SDS011;14613;46.308;25.288;2023-07-13T01:43:47;0.00;;;0.00;;
27071;SDS011;14613;46.308;25.288;2023-07-13T01:46:13;0.00;;;0.00;;
27071;SDS011;14613;46.308;25.288;2023-07-13T01:48:38;1.25;;;0.40;;
27071;SDS011;14613;46.308;25.288;2023-07-13T01:51:04;0.10;;;0.10;;
27071;SDS011;14613;46.308;25.288;2023-07-13T01:53:30;0.00;;;0.00;;
27071;SDS011;14613;46.308;25.288;2023-07-13T01:55:56;0.28;;;0.28;;
27071;SDS011;14613;46.308;25.288;2023-07-13T01:58:21;1.23;;;0.70;;
27071;SDS011;14613;46.308;25.288;2023-07-13T02:00:48;0.05;;;0.05;;
27071;SDS011;14613;46.308;25.288;2023-07-13T02:03:15;0.00;;;0.00;;
27071;SDS011;14613;46.308;25.288;2023-07-13T02:05:43;0.20;;;0.20;;
27071;SDS011;14613;46.308;25.288;2023-07-13T02:08:09;0.00;;;0.00;;
27071;SDS011;14613;46.308;25.288;2023-07-13T02:10:36;0.00;;;0.00;;
27071;SDS011;14613;46.308;25.288;2023-07-13T02:13:03;0.10;;;0.10;;
27071;SDS011;14613;46.308;25.288;2023-07-13T02:15:31;0.10;;;0.10;;
27071;SDS011;14613;46.308;25.288;2023-07-13T02:17:57;0.00;;;0.00;;
27071;SDS011;14613;46.308;25.288;2023-07-13T02:20:23;0.43;;;0.20;;
27071;SDS011;14613;46.308;25.288;2023-07-13T02:22:49;0.10;;;0.10;;
27071;SDS011;14613;46.308;25.288;2023-07-13T02:25:15;0.00;;;0.00;;
27071;SDS011;14613;46.308;25.288;2023-07-13T02:27:41;0.10;;;0.10;;
27071;SDS011;14613;46.308;25.288;2023-07-13T02:30:07;0.00;;;0.00;;
27071;SDS011;14613;46.308;25.288;2023-07-13T02:32:33;0.20;;;0.20;;
27071;SDS011;14613;46.308;25.288;2023-07-13T02:35:00;0.00;;;0.00;;
27071;SDS011;14613;46.308;25.288;2023-07-13T02:37:26;0.00;;;0.00;;
27071;SDS011;14613;46.308;25.288;2023-07-13T02:39:51;0.00;;;0.00;;
27071;SDS011;14613;46.308;25.288;2023-07-13T02:42:17;0.00;;;0.00;;
27071;SDS011;14613;46.308;25.288;2023-07-13T02:44:43;0.00;;;0.00;;
27071;SDS011;14613;46.308;25.288;2023-07-13T02:47:09;0.55;;;0.45;;
27071;SDS011;14613;46.308;25.288;2023-07-13T02:49:34;0.00;;;0.00;;
27071;SDS011;14613;46.308;25.288;2023-07-13T02:52:01;0.00;;;0.00;;
27071;SDS011;14613;46.308;25.288;2023-07-13T02:54:27;0.73;;;0.65;;
27071;SDS011;14613;46.308;25.288;2023-07-13T02:56:53;0.13;;;0.13;;
27071;SDS011;14613;46.308;25.288;2023-07-13T02:59:18;0.10;;;0.10;;
27071;SDS011;14613;46.308;25.288;2023-07-13T03:01:44;0.10;;;0.10;;
27071;SDS011;14613;46.308;25.288;2023-07-13T03:04:10;0.00;;;0.00;;
27071;SDS011;14613;46.308;25.288;2023-07-13T03:06:37;0.35;;;0.35;;
27071;SDS011;14613;46.308;25.288;2023-07-13T03:09:02;0.47;;;0.47;;
27071;SDS011;14613;46.308;25.288;2023-07-13T03:11:29;0.22;;;0.20;;
27071;SDS011;14613;46.308;25.288;2023-07-13T03:13:55;0.00;;;0.00;;
27071;SDS011;14613;46.308;25.288;2023-07-13T03:16:20;0.22;;;0.22;;
27071;SDS011;14613;46.308;25.288;2023-07-13T03:18:47;0.00;;;0.00;;
27071;SDS011;14613;46.308;25.288;2023-07-13T03:21:13;0.00;;;0.00;;
27071;SDS011;14613;46.308;25.288;2023-07-13T03:23:39;0.00;;;0.00;;
27071;SDS011;14613;46.308;25.288;2023-07-13T03:26:09;0.10;;;0.10;;
27071;SDS011;14613;46.308;25.288;2023-07-13T03:28:38;0.00;;;0.00;;
27071;SDS011;14613;46.308;25.288;2023-07-13T03:31:05;0.25;;;0.25;;
27071;SDS011;14613;46.308;25.288;2023-07-13T03:33:33;0.20;;;0.20;;
27071;SDS011;14613;46.308;25.288;2023-07-13T03:35:59;0.22;;;0.22;;
27071;SDS011;14613;46.308;25.288;2023-07-13T03:38:25;0.10;;;0.10;;
27071;SDS011;14613;46.308;25.288;2023-07-13T03:40:51;0.05;;;0.05;;
27071;SDS011;14613;46.308;25.288;2023-07-13T03:43:17;0.10;;;0.10;;
27071;SDS011;14613;46.308;25.288;2023-07-13T03:45:43;0.00;;;0.00;;
27071;SDS011;14613;46.308;25.288;2023-07-13T03:48:09;0.20;;;0.20;;
27071;SDS011;14613;46.308;25.288;2023-07-13T03:50:35;0.65;;;0.30;;
27071;SDS011;14613;46.308;25.288;2023-07-13T03:53:00;0.20;;;0.20;;
27071;SDS011;14613;46.308;25.288;2023-07-13T03:55:26;0.00;;;0.00;;
27071;SDS011;14613;46.308;25.288;2023-07-13T03:58:24;0.22;;;0.22;;
27071;SDS011;14613;46.308;25.288;2023-07-13T04:00:54;0.00;;;0.00;;
27071;SDS011;14613;46.308;25.288;2023-07-13T04:03:20;0.10;;;0.10;;
27071;SDS011;14613;46.308;25.288;2023-07-13T04:05:46;0.20;;;0.20;;
27071;SDS011;14613;46.308;25.288;2023-07-13T04:08:12;0.80;;;0.68;;
27071;SDS011;14613;46.308;25.288;2023-07-13T04:10:38;0.00;;;0.00;;
27071;SDS011;14613;46.308;25.288;2023-07-13T04:13:04;0.00;;;0.00;;
27071;SDS011;14613;46.308;25.288;2023-07-13T04:15:31;0.08;;;0.08;;
27071;SDS011;14613;46.308;25.288;2023-07-13T04:17:57;0.03;;;0.03;;
27071;SDS011;14613;46.308;25.288;2023-07-13T04:20:24;0.13;;;0.13;;
27071;SDS011;14613;46.308;25.288;2023-07-13T04:22:51;0.00;;;0.00;;
27071;SDS011;14613;46.308;25.288;2023-07-13T04:25:18;0.00;;;0.00;;
27071;SDS011;14613;46.308;25.288;2023-07-13T04:27:45;0.45;;;0.32;;
27071;SDS011;14613;46.308;25.288;2023-07-13T04:30:11;1.27;;;0.50;;
27071;SDS011;14613;46.308;25.288;2023-07-13T04:32:37;0.20;;;0.20;;
27071;SDS011;14613;46.308;25.288;2023-07-13T04:35:02;0.32;;;0.32;;
27071;SDS011;14613;46.308;25.288;2023-07-13T04:37:29;0.10;;;0.10;;
27071;SDS011;14613;46.308;25.288;2023-07-13T04:39:55;1.63;;;0.75;;
27071;SDS011;14613;46.308;25.288;2023-07-13T04:42:21;0.28;;;0.28;;
27071;SDS011;14613;46.308;25.288;2023-07-13T04:44:48;0.10;;;0.10;;
27071;SDS011;14613;46.308;25.288;2023-07-13T04:47:14;0.20;;;0.20;;
27071;SDS011;14613;46.308;25.288;2023-07-13T04:49:40;0.52;;;0.10;;
27071;SDS011;14613;46.308;25.288;2023-07-13T04:52:06;0.65;;;0.63;;
27071;SDS011;14613;46.308;25.288;2023-07-13T04:54:33;0.47;;;0.47;;
27071;SDS011;14613;46.308;25.288;2023-07-13T04:56:59;0.17;;;0.17;;
27071;SDS011;14613;46.308;25.288;2023-07-13T04:59:25;0.45;;;0.45;;
27071;SDS011;14613;46.308;25.288;2023-07-13T05:01:50;0.38;;;0.38;;
27071;SDS011;14613;46.308;25.288;2023-07-13T05:04:16;0.50;;;0.40;;
27071;SDS011;14613;46.308;25.288;2023-07-13T05:06:42;0.57;;;0.57;;
27071;SDS011;14613;46.308;25.288;2023-07-13T05:09:08;0.00;;;0.00;;
27071;SDS011;14613;46.308;25.288;2023-07-13T05:11:34;0.32;;;0.32;;
27071;SDS011;14613;46.308;25.288;2023-07-13T05:13:59;0.32;;;0.30;;
27071;SDS011;14613;46.308;25.288;2023-07-13T05:16:26;0.00;;;0.00;;
27071;SDS011;14613;46.308;25.288;2023-07-13T05:18:52;0.47;;;0.47;;
27071;SDS011;14613;46.308;25.288;2023-07-13T05:21:18;0.63;;;0.50;;
27071;SDS011;14613;46.308;25.288;2023-07-13T05:23:44;0.00;;;0.00;;
27071;SDS011;14613;46.308;25.288;2023-07-13T05:26:10;1.38;;;0.60;;
27071;SDS011;14613;46.308;25.288;2023-07-13T05:28:37;0.20;;;0.20;;
27071;SDS011;14613;46.308;25.288;2023-07-13T05:31:03;2.05;;;0.22;;
27071;SDS011;14613;46.308;25.288;2023-07-13T05:33:29;0.17;;;0.17;;
27071;SDS011;14613;46.308;25.288;2023-07-13T05:35:55;0.00;;;0.00;;
27071;SDS011;14613;46.308;25.288;2023-07-13T05:38:21;3.53;;;1.10;;
27071;SDS011;14613;46.308;25.288;2023-07-13T05:40:47;0.10;;;0.10;;
27071;SDS011;14613;46.308;25.288;2023-07-13T05:43:13;1.55;;;1.38;;
27071;SDS011;14613;46.308;25.288;2023-07-13T05:45:39;1.33;;;1.13;;
27071;SDS011;14613;46.308;25.288;2023-07-13T05:48:05;0.38;;;0.38;;
27071;SDS011;14613;46.308;25.288;2023-07-13T05:50:31;2.92;;;2.17;;
27071;SDS011;14613;46.308;25.288;2023-07-13T05:52:57;6.53;;;4.57;;
27071;SDS011;14613;46.308;25.288;2023-07-13T05:55:23;6.00;;;2.97;;
27071;SDS011;14613;46.308;25.288;2023-07-13T05:57:49;4.95;;;3.15;;
27071;SDS011;14613;46.308;25.288;2023-07-13T06:00:14;4.43;;;2.67;;
27071;SDS011;14613;46.308;25.288;2023-07-13T06:02:41;8.88;;;3.25;;
27071;SDS011;14613;46.308;25.288;2023-07-13T06:05:07;12.70;;;1.13;;
27071;SDS011;14613;46.308;25.288;2023-07-13T06:07:33;2.92;;;2.20;;
27071;SDS011;14613;46.308;25.288;2023-07-13T06:09:58;3.08;;;0.93;;
27071;SDS011;14613;46.308;25.288;2023-07-13T06:12:25;0.30;;;0.30;;
27071;SDS011;14613;46.308;25.288;2023-07-13T06:14:51;0.55;;;0.55;;
27071;SDS011;14613;46.308;25.288;2023-07-13T06:17:16;1.88;;;1.02;;
27071;SDS011;14613;46.308;25.288;2023-07-13T06:19:42;0.47;;;0.38;;
27071;SDS011;14613;46.308;25.288;2023-07-13T06:22:08;0.82;;;0.75;;
27071;SDS011;14613;46.308;25.288;2023-07-13T06:24:34;0.65;;;0.35;;
27071;SDS011;14613;46.308;25.288;2023-07-13T06:27:00;0.00;;;0.00;;
27071;SDS011;14613;46.308;25.288;2023-07-13T06:29:27;0.57;;;0.57;;
27071;SDS011;14613;46.308;25.288;2023-07-13T06:31:53;0.28;;;0.28;;
27071;SDS011;14613;46.308;25.288;2023-07-13T06:34:18;0.63;;;0.38;;
27071;SDS011;14613;46.308;25.288;2023-07-13T06:36:45;0.20;;;0.10;;
27071;SDS011;14613;46.308;25.288;2023-07-13T06:39:10;0.00;;;0.00;;
27071;SDS011;14613;46.308;25.288;2023-07-13T06:41:36;0.40;;;0.20;;
27071;SDS011;14613;46.308;25.288;2023-07-13T06:44:03;1.13;;;0.57;;
27071;SDS011;14613;46.308;25.288;2023-07-13T06:46:30;0.32;;;0.30;;
27071;SDS011;14613;46.308;25.288;2023-07-13T06:48:56;0.20;;;0.20;;
27071;SDS011;14613;46.308;25.288;2023-07-13T06:51:21;0.73;;;0.73;;
27071;SDS011;14613;46.308;25.288;2023-07-13T06:53:47;0.00;;;0.00;;
27071;SDS011;14613;46.308;25.288;2023-07-13T06:56:14;0.10;;;0.10;;
27071;SDS011;14613;46.308;25.288;2023-07-13T06:58:40;0.03;;;0.03;;
27071;SDS011;14613;46.308;25.288;2023-07-13T07:01:06;0.08;;;0.08;;
27071;SDS011;14613;46.308;25.288;2023-07-13T07:03:31;0.05;;;0.05;;
27071;SDS011;14613;46.308;25.288;2023-07-13T07:06:01;0.55;;;0.15;;
27071;SDS011;14613;46.308;25.288;2023-07-13T07:08:53;0.13;;;0.13;;
27071;SDS011;14613;46.308;25.288;2023-07-13T07:11:20;0.55;;;0.50;;
27071;SDS011;14613;46.308;25.288;2023-07-13T07:13:48;0.40;;;0.40;;
27071;SDS011;14613;46.308;25.288;2023-07-13T07:16:14;0.03;;;0.03;;
27071;SDS011;14613;46.308;25.288;2023-07-13T07:18:41;0.13;;;0.13;;
27071;SDS011;14613;46.308;25.288;2023-07-13T07:21:06;2.50;;;0.70;;
27071;SDS011;14613;46.308;25.288;2023-07-13T07:23:32;0.20;;;0.20;;
27071;SDS011;14613;46.308;25.288;2023-07-13T07:25:58;0.20;;;0.20;;
27071;SDS011;14613;46.308;25.288;2023-07-13T07:28:24;0.20;;;0.20;;
27071;SDS011;14613;46.308;25.288;2023-07-13T07:30:52;0.20;;;0.20;;
27071;SDS011;14613;46.308;25.288;2023-07-13T07:33:18;0.20;;;0.20;;
27071;SDS011;14613;46.308;25.288;2023-07-13T07:35:44;0.80;;;0.10;;
27071;SDS011;14613;46.308;25.288;2023-07-13T07:38:10;0.50;;;0.45;;
27071;SDS011;14613;46.308;25.288;2023-07-13T07:40:39;0.08;;;0.08;;
27071;SDS011;14613;46.308;25.288;2023-07-13T07:43:09;0.38;;;0.38;;
27071;SDS011;14613;46.308;25.288;2023-07-13T07:45:36;0.57;;;0.43;;
27071;SDS011;14613;46.308;25.288;2023-07-13T07:48:04;0.28;;;0.28;;
27071;SDS011;14613;46.308;25.288;2023-07-13T07:50:30;5.85;;;0.47;;
27071;SDS011;14613;46.308;25.288;2023-07-13T07:52:56;0.32;;;0.10;;
27071;SDS011;14613;46.308;25.288;2023-07-13T07:55:22;0.20;;;0.20;;
27071;SDS011;14613;46.308;25.288;2023-07-13T07:57:50;0.20;;;0.20;;
27071;SDS011;14613;46.308;25.288;2023-07-13T08:00:16;0.10;;;0.10;;
27071;SDS011;14613;46.308;25.288;2023-07-13T08:02:42;0.05;;;0.05;;
27071;SDS011;14613;46.308;25.288;2023-07-13T08:05:09;0.03;;;0.03;;
27071;SDS011;14613;46.308;25.288;2023-07-13T08:07:37;0.10;;;0.10;;
27071;SDS011;14613;46.308;25.288;2023-07-13T08:10:07;0.20;;;0.20;;
27071;SDS011;14613;46.308;25.288;2023-07-13T08:12:34;0.45;;;0.30;;
27071;SDS011;14613;46.308;25.288;2023-07-13T08:15:01;0.10;;;0.10;;
27071;SDS011;14613;46.308;25.288;2023-07-13T08:17:27;1.00;;;0.28;;
27071;SDS011;14613;46.308;25.288;2023-07-13T08:19:52;0.28;;;0.28;;
27071;SDS011;14613;46.308;25.288;2023-07-13T08:22:18;0.00;;;0.00;;
27071;SDS011;14613;46.308;25.288;2023-07-13T08:24:44;0.10;;;0.10;;
27071;SDS011;14613;46.308;25.288;2023-07-13T08:27:10;2.72;;;0.28;;
27071;SDS011;14613;46.308;25.288;2023-07-13T08:29:37;0.20;;;0.20;;
27071;SDS011;14613;46.308;25.288;2023-07-13T08:32:04;0.13;;;0.13;;
27071;SDS011;14613;46.308;25.288;2023-07-13T08:34:31;0.55;;;0.52;;
27071;SDS011;14613;46.308;25.288;2023-07-13T08:36:56;0.68;;;0.63;;
27071;SDS011;14613;46.308;25.288;2023-07-13T08:39:22;1.55;;;0.55;;
27071;SDS011;14613;46.308;25.288;2023-07-13T08:41:49;0.30;;;0.30;;
27071;SDS011;14613;46.308;25.288;2023-07-13T08:44:27;0.20;;;0.20;;
27071;SDS011;14613;46.308;25.288;2023-07-13T08:47:04;0.03;;;0.03;;
27071;SDS011;14613;46.308;25.288;2023-07-13T08:49:32;0.20;;;0.20;;
27071;SDS011;14613;46.308;25.288;2023-07-13T08:52:24;0.47;;;0.47;;
27071;SDS011;14613;46.308;25.288;2023-07-13T08:54:51;0.10;;;0.10;;
27071;SDS011;14613;46.308;25.288;2023-07-13T08:57:30;0.30;;;0.30;;
27071;SDS011;14613;46.308;25.288;2023-07-13T08:59:58;0.10;;;0.10;;
27071;SDS011;14613;46.308;25.288;2023-07-13T09:05:16;0.95;;;0.55;;
27071;SDS011;14613;46.308;25.288;2023-07-13T09:07:55;0.28;;;0.13;;
27071;SDS011;14613;46.308;25.288;2023-07-13T09:10:52;0.25;;;0.25;;
27071;SDS011;14613;46.308;25.288;2023-07-13T09:15:52;0.00;;;0.00;;
27071;SDS011;14613;46.308;25.288;2023-07-13T09:21:44;0.38;;;0.38;;
27071;SDS011;14613;46.308;25.288;2023-07-13T09:24:23;0.00;;;0.00;;
27071;SDS011;14613;46.308;25.288;2023-07-13T09:26:47;0.08;;;0.08;;
27071;SDS011;14613;46.308;25.288;2023-07-13T09:29:15;2.20;;;0.63;;
27071;SDS011;14613;46.308;25.288;2023-07-13T09:31:58;0.00;;;0.00;;
27071;SDS011;14613;46.308;25.288;2023-07-13T09:34:28;1.17;;;1.02;;
27071;SDS011;14613;46.308;25.288;2023-07-13T09:36:58;0.20;;;0.20;;
27071;SDS011;14613;46.308;25.288;2023-07-13T09:39:25;0.80;;;0.80;;
27071;SDS011;14613;46.308;25.288;2023-07-13T09:42:07;0.30;;;0.30;;
27071;SDS011;14613;46.308;25.288;2023-07-13T09:47:16;1.15;;;0.60;;
27071;SDS011;14613;46.308;25.288;2023-07-13T09:49:44;1.20;;;1.10;;
27071;SDS011;14613;46.308;25.288;2023-07-13T09:52:11;0.00;;;0.00;;
27071;SDS011;14613;46.308;25.288;2023-07-13T09:54:39;0.10;;;0.10;;
27071;SDS011;14613;46.308;25.288;2023-07-13T09:57:13;0.13;;;0.13;;
27071;SDS011;14613;46.308;25.288;2023-07-13T09:59:48;0.10;;;0.10;;
27071;SDS011;14613;46.308;25.288;2023-07-13T10:02:23;0.20;;;0.20;;
27071;SDS011;14613;46.308;25.288;2023-07-13T10:07:44;0.47;;;0.47;;
27071;SDS011;14613;46.308;25.288;2023-07-13T10:10:15;0.10;;;0.10;;
27071;SDS011;14613;46.308;25.288;2023-07-13T10:12:45;0.10;;;0.05;;
27071;SDS011;14613;46.308;25.288;2023-07-13T10:15:19;0.45;;;0.28;;
27071;SDS011;14613;46.308;25.288;2023-07-13T10:17:47;0.20;;;0.20;;
27071;SDS011;14613;46.308;25.288;2023-07-13T10:20:14;0.10;;;0.10;;
27071;SDS011;14613;46.308;25.288;2023-07-13T10:25:35;0.00;;;0.00;;
27071;SDS011;14613;46.308;25.288;2023-07-13T10:30:51;0.22;;;0.22;;
27071;SDS011;14613;46.308;25.288;2023-07-13T10:33:18;0.70;;;0.52;;
27071;SDS011;14613;46.308;25.288;2023-07-13T10:35:45;0.05;;;0.05;;
27071;SDS011;14613;46.308;25.288;2023-07-13T10:38:18;0.15;;;0.15;;
27071;SDS011;14613;46.308;25.288;2023-07-13T10:41:00;0.10;;;0.10;;
27071;SDS011;14613;46.308;25.288;2023-07-13T10:43:38;0.80;;;0.10;;
27071;SDS011;14613;46.308;25.288;2023-07-13T10:46:08;0.00;;;0.00;;
27071;SDS011;14613;46.308;25.288;2023-07-13T10:48:37;0.13;;;0.13;;
27071;SDS011;14613;46.308;25.288;2023-07-13T10:51:05;0.20;;;0.20;;
27071;SDS011;14613;46.308;25.288;2023-07-13T10:53:36;0.00;;;0.00;;
27071;SDS011;14613;46.308;25.288;2023-07-13T10:58:40;0.17;;;0.17;;
27071;SDS011;14613;46.308;25.288;2023-07-13T11:06:10;0.00;;;0.00;;
27071;SDS011;14613;46.308;25.288;2023-07-13T11:11:09;0.10;;;0.10;;
27071;SDS011;14613;46.308;25.288;2023-07-13T11:19:08;0.20;;;0.17;;
27071;SDS011;14613;46.308;25.288;2023-07-13T11:22:01;0.10;;;0.10;;
27071;SDS011;14613;46.308;25.288;2023-07-13T11:24:30;0.15;;;0.15;;
27071;SDS011;14613;46.308;25.288;2023-07-13T11:38:43;0.20;;;0.20;;
27071;SDS011;14613;46.308;25.288;2023-07-13T11:44:17;1.00;;;0.22;;
27071;SDS011;14613;46.308;25.288;2023-07-13T11:46:53;0.47;;;0.47;;
27071;SDS011;14613;46.308;25.288;2023-07-13T11:49:21;0.88;;;0.30;;
27071;SDS011;14613;46.308;25.288;2023-07-13T11:51:52;0.20;;;0.20;;
27071;SDS011;14613;46.308;25.288;2023-07-13T11:56:55;0.20;;;0.20;;
27071;SDS011;14613;46.308;25.288;2023-07-13T11:59:26;0.08;;;0.08;;
27071;SDS011;14613;46.308;25.288;2023-07-13T12:01:53;0.30;;;0.30;;
27071;SDS011;14613;46.308;25.288;2023-07-13T12:04:27;0.47;;;0.20;;
27071;SDS011;14613;46.308;25.288;2023-07-13T12:07:14;0.28;;;0.28;;
27071;SDS011;14613;46.308;25.288;2023-07-13T12:09:42;0.90;;;0.52;;
27071;SDS011;14613;46.308;25.288;2023-07-13T12:12:18;0.30;;;0.30;;
27071;SDS011;14613;46.308;25.288;2023-07-13T12:14:46;0.45;;;0.45;;
27071;SDS011;14613;46.308;25.288;2023-07-13T12:17:20;0.00;;;0.00;;
27071;SDS011;14613;46.308;25.288;2023-07-13T12:19:48;0.50;;;0.50;;
27071;SDS011;14613;46.308;25.288;2023-07-13T12:22:15;0.70;;;0.30;;
27071;SDS011;14613;46.308;25.288;2023-07-13T12:24:43;0.20;;;0.20;;
27071;SDS011;14613;46.308;25.288;2023-07-13T12:27:27;0.28;;;0.28;;
27071;SDS011;14613;46.308;25.288;2023-07-13T12:32:24;0.00;;;0.00;;
27071;SDS011;14613;46.308;25.288;2023-07-13T12:34:51;0.65;;;0.65;;
27071;SDS011;14613;46.308;25.288;2023-07-13T12:37:19;0.17;;;0.15;;
27071;SDS011;14613;46.308;25.288;2023-07-13T12:39:46;0.00;;;0.00;;
27071;SDS011;14613;46.308;25.288;2023-07-13T12:42:21;0.32;;;0.05;;
27071;SDS011;14613;46.308;25.288;2023-07-13T12:44:58;0.25;;;0.25;;
27071;SDS011;14613;46.308;25.288;2023-07-13T12:47:41;0.30;;;0.30;;
27071;SDS011;14613;46.308;25.288;2023-07-13T12:50:12;0.32;;;0.28;;
27071;SDS011;14613;46.308;25.288;2023-07-13T12:53:02;0.10;;;0.10;;
27071;SDS011;14613;46.308;25.288;2023-07-13T12:55:37;0.28;;;0.20;;
27071;SDS011;14613;46.308;25.288;2023-07-13T12:58:20;0.00;;;0.00;;
27071;SDS011;14613;46.308;25.288;2023-07-13T13:00:51;0.00;;;0.00;;
27071;SDS011;14613;46.308;25.288;2023-07-13T13:03:22;0.60;;;0.55;;
27071;SDS011;14613;46.308;25.288;2023-07-13T13:06:06;0.10;;;0.10;;
27071;SDS011;14613;46.308;25.288;2023-07-13T13:08:49;0.05;;;0.05;;
27071;SDS011;14613;46.308;25.288;2023-07-13T13:11:18;0.68;;;0.32;;
27071;SDS011;14613;46.308;25.288;2023-07-13T13:13:44;0.70;;;0.25;;
27071;SDS011;14613;46.308;25.288;2023-07-13T13:18:55;0.00;;;0.00;;
27071;SDS011;14613;46.308;25.288;2023-07-13T13:21:24;0.00;;;0.00;;
27071;SDS011;14613;46.308;25.288;2023-07-13T13:23:51;0.35;;;0.35;;
27071;SDS011;14613;46.308;25.288;2023-07-13T13:26:18;0.70;;;0.45;;
27071;SDS011;14613;46.308;25.288;2023-07-13T13:28:44;0.08;;;0.08;;
27071;SDS011;14613;46.308;25.288;2023-07-13T13:31:12;0.10;;;0.10;;
27071;SDS011;14613;46.308;25.288;2023-07-13T13:33:39;0.05;;;0.05;;
27071;SDS011;14613;46.308;25.288;2023-07-13T13:36:21;0.08;;;0.08;;
27071;SDS011;14613;46.308;25.288;2023-07-13T13:38:48;0.00;;;0.00;;
27071;SDS011;14613;46.308;25.288;2023-07-13T13:41:15;0.00;;;0.00;;
27071;SDS011;14613;46.308;25.288;2023-07-13T13:43:42;0.25;;;0.25;;
27071;SDS011;14613;46.308;25.288;2023-07-13T13:46:17;0.10;;;0.10;;
27071;SDS011;14613;46.308;25.288;2023-07-13T13:48:46;0.00;;;0.00;;
27071;SDS011;14613;46.308;25.288;2023-07-13T13:51:21;2.53;;;0.30;;
27071;SDS011;14613;46.308;25.288;2023-07-13T13:53:48;0.20;;;0.17;;
27071;SDS011;14613;46.308;25.288;2023-07-13T13:56:15;0.20;;;0.20;;
27071;SDS011;14613;46.308;25.288;2023-07-13T13:58:43;0.38;;;0.28;;
27071;SDS011;14613;46.308;25.288;2023-07-13T14:01:13;0.30;;;0.30;;
27071;SDS011;14613;46.308;25.288;2023-07-13T14:03:48;0.00;;;0.00;;
27071;SDS011;14613;46.308;25.288;2023-07-13T14:06:16;0.00;;;0.00;;
27071;SDS011;14613;46.308;25.288;2023-07-13T14:08:42;0.47;;;0.22;;
27071;SDS011;14613;46.308;25.288;2023-07-13T14:11:12;1.02;;;0.25;;
27071;SDS011;14613;46.308;25.288;2023-07-13T14:13:41;0.03;;;0.03;;
27071;SDS011;14613;46.308;25.288;2023-07-13T14:16:18;0.10;;;0.10;;
27071;SDS011;14613;46.308;25.288;2023-07-13T14:18:45;0.35;;;0.35;;
27071;SDS011;14613;46.308;25.288;2023-07-13T14:21:15;0.38;;;0.38;;
27071;SDS011;14613;46.308;25.288;2023-07-13T14:23:44;0.30;;;0.08;;
27071;SDS011;14613;46.308;25.288;2023-07-13T14:26:15;0.25;;;0.25;;
27071;SDS011;14613;46.308;25.288;2023-07-13T14:28:55;0.93;;;0.93;;
27071;SDS011;14613;46.308;25.288;2023-07-13T14:31:23;0.13;;;0.13;;
27071;SDS011;14613;46.308;25.288;2023-07-13T14:33:50;0.20;;;0.20;;
27071;SDS011;14613;46.308;25.288;2023-07-13T14:53:08;0.10;;;0.10;;
27071;SDS011;14613;46.308;25.288;2023-07-13T14:55:35;0.15;;;0.15;;
27071;SDS011;14613;46.308;25.288;2023-07-13T15:08:07;0.10;;;0.10;;
27071;SDS011;14613;46.308;25.288;2023-07-13T15:10:35;0.13;;;0.13;;
27071;SDS011;14613;46.308;25.288;2023-07-13T15:13:12;0.03;;;0.03;;
27071;SDS011;14613;46.308;25.288;2023-07-13T15:15:43;0.20;;;0.10;;
27071;SDS011;14613;46.308;25.288;2023-07-13T15:18:14;0.20;;;0.20;;
27071;SDS011;14613;46.308;25.288;2023-07-13T15:20:42;3.53;;;0.55;;
27071;SDS011;14613;46.308;25.288;2023-07-13T15:23:11;0.00;;;0.00;;
27071;SDS011;14613;46.308;25.288;2023-07-13T15:25:37;1.45;;;0.30;;
27071;SDS011;14613;46.308;25.288;2023-07-13T15:28:04;0.32;;;0.32;;
27071;SDS011;14613;46.308;25.288;2023-07-13T15:30:48;0.03;;;0.03;;
27071;SDS011;14613;46.308;25.288;2023-07-13T15:33:16;0.43;;;0.43;;
27071;SDS011;14613;46.308;25.288;2023-07-13T15:35:44;0.88;;;0.47;;
27071;SDS011;14613;46.308;25.288;2023-07-13T15:38:19;0.17;;;0.17;;
27071;SDS011;14613;46.308;25.288;2023-07-13T15:40:47;0.20;;;0.20;;
27071;SDS011;14613;46.308;25.288;2023-07-13T15:43:15;0.43;;;0.32;;
27071;SDS011;14613;46.308;25.288;2023-07-13T15:45:42;0.38;;;0.15;;
27071;SDS011;14613;46.308;25.288;2023-07-13T15:48:13;0.70;;;0.22;;
27071;SDS011;14613;46.308;25.288;2023-07-13T16:33:04;0.13;;;0.13;;
27071;SDS011;14613;46.308;25.288;2023-07-13T16:35:35;0.13;;;0.13;;
27071;SDS011;14613;46.308;25.288;2023-07-13T16:38:03;0.15;;;0.15;;
27071;SDS011;14613;46.308;25.288;2023-07-13T16:40:38;1.05;;;0.47;;
27071;SDS011;14613;46.308;25.288;2023-07-13T16:43:04;0.08;;;0.08;;
27071;SDS011;14613;46.308;25.288;2023-07-13T16:45:33;0.10;;;0.10;;
27071;SDS011;14613;46.308;25.288;2023-07-13T16:47:59;0.00;;;0.00;;